Time;durP1;ratioP1;P1;durP2;ratioP2;P2;SDS_P1;SDS_P2;PMS_P1;PMS_P2;Temp;Humidity;BMP_temperature;BMP_pressure;BME280_temperature;BME280_humidity;BME280_pressure;Samples;Min_cycle;Max_cycle;Signal;HPM_P1;HPM_P2
2022/08/20 00:01:33;;;;;;;6.40;2.35;;;19.20;99.90;;;;;;5094460;28;20389;-74
2022/08/20 00:03:58;;;;;;;6.03;2.70;;;19.40;99.90;;;;;;5094404;28;20481;-74
2022/08/20 00:06:26;;;;;;;10.95;3.63;;;19.50;99.90;;;;;;5094358;28;20017;-74
2022/08/20 00:08:51;;;;;;;5.35;2.83;;;19.40;99.90;;;;;;5094300;28;20393;-74
2022/08/20 00:11:22;;;;;;;7.05;2.35;;;19.40;99.90;;;;;;5094351;28;20013;-74
2022/08/20 00:13:51;;;;;;;6.60;2.38;;;19.40;99.90;;;;;;5094605;28;20016;-74
2022/08/20 00:16:19;;;;;;;5.30;2.22;;;19.40;99.90;;;;;;5094065;28;20031;-74
2022/08/20 00:18:45;;;;;;;5.43;2.60;;;19.40;99.90;;;;;;5075756;28;20035;-74
2022/08/20 00:21:15;;;;;;;4.85;2.08;;;19.40;99.90;;;;;;5094135;28;20027;-74
2022/08/20 00:23:43;;;;;;;9.98;2.17;;;19.40;99.90;;;;;;5094297;28;20016;-74
2022/08/20 00:26:10;;;;;;;;;;;19.30;99.90;;;;;;5094706;28;20381;-74
2022/08/20 00:28:36;;;;;;;5.07;1.63;;;19.30;99.90;;;;;;5093931;28;19908;-74
2022/08/20 00:31:04;;;;;;;6.60;2.00;;;19.30;99.90;;;;;;5093820;28;20115;-74
2022/08/20 00:33:30;;;;;;;4.25;1.55;;;19.40;99.90;;;;;;5075741;28;20389;-74
2022/08/20 00:35:56;;;;;;;5.28;1.48;;;19.30;99.90;;;;;;5075836;28;20013;-74
2022/08/20 00:38:23;;;;;;;4.90;1.60;;;19.30;99.90;;;;;;5093956;28;20081;-76
2022/08/20 00:40:55;;;;;;;4.47;1.98;;;19.30;99.90;;;;;;5075654;28;20016;-76
2022/08/20 00:43:29;;;;;;;4.45;1.75;;;19.30;99.90;;;;;;5093796;28;20362;-76
2022/08/20 00:45:56;;;;;;;4.47;1.88;;;19.30;99.90;;;;;;5093839;28;20048;-76
2022/08/20 00:48:29;;;;;;;7.47;2.55;;;19.30;99.90;;;;;;5075660;28;20024;-76
2022/08/20 00:51:05;;;;;;;8.07;2.70;;;19.30;99.90;;;;;;5075566;28;20028;-76
2022/08/20 00:53:32;;;;;;;14.15;3.67;;;19.30;99.90;;;;;;5093633;28;20028;-77
2022/08/20 00:55:58;;;;;;;14.93;3.08;;;19.30;99.90;;;;;;5075489;28;20023;-76
2022/08/20 00:58:23;;;;;;;11.73;3.75;;;19.30;99.90;;;;;;5094001;28;20495;-76
2022/08/20 01:00:50;;;;;;;7.93;3.20;;;19.20;99.90;;;;;;5094029;28;20024;-76
2022/08/20 01:03:19;;;;;;;14.05;3.17;;;19.20;99.90;;;;;;5094181;28;20017;-75
2022/08/20 01:05:48;;;;;;;10.30;3.65;;;19.20;99.90;;;;;;5093439;28;20028;-75
2022/08/20 01:08:15;;;;;;;5.45;3.22;;;19.20;99.90;;;;;;5075428;28;20418;-75
2022/08/20 01:10:44;;;;;;;8.50;3.05;;;19.20;99.90;;;;;;5075327;28;20035;-75
2022/08/20 01:13:19;;;;;;;7.28;2.53;;;19.20;99.90;;;;;;5093656;28;20058;-75
2022/08/20 01:15:48;;;;;;;6.80;2.92;;;19.10;99.90;;;;;;5075136;28;20511;-75
2022/08/20 01:18:18;;;;;;;8.02;2.90;;;19.10;99.90;;;;;;5093335;28;20583;-75
2022/08/20 01:21:03;;;;;;;5.60;2.65;;;19.00;99.90;;;;;;5093161;28;20097;-75
2022/08/20 01:23:52;;;;;;;8.52;2.47;;;19.00;99.90;;;;;;5075082;28;20027;-75
2022/08/20 01:26:33;;;;;;;8.70;3.35;;;18.90;99.90;;;;;;5093361;28;20354;-75
2022/08/20 01:29:10;;;;;;;9.30;3.20;;;18.90;99.90;;;;;;5093356;28;20516;-75
2022/08/20 01:31:38;;;;;;;5.47;3.28;;;18.90;99.90;;;;;;5095391;28;20031;-75
2022/08/20 01:34:08;;;;;;;8.88;3.70;;;18.80;99.90;;;;;;5097486;28;20032;-75
2022/08/20 01:36:43;;;;;;;9.82;3.08;;;18.80;99.90;;;;;;5079072;28;20024;-75
2022/08/20 01:39:13;;;;;;;6.40;2.88;;;18.80;99.90;;;;;;5097109;28;20028;-75
2022/08/20 01:41:46;;;;;;;9.85;3.10;;;18.80;99.90;;;;;;5078986;28;20111;-75
2022/08/20 01:44:12;;;;;;;9.30;3.25;;;18.80;99.90;;;;;;5097315;28;20058;-75
2022/08/20 01:46:40;;;;;;;6.95;3.40;;;18.80;99.90;;;;;;5097091;28;20052;-75
2022/08/20 01:49:20;;;;;;;8.32;3.20;;;18.70;99.90;;;;;;5078831;28;20118;-75
2022/08/20 01:51:48;;;;;;;5.13;3.00;;;18.70;99.90;;;;;;5096967;28;20428;-75
2022/08/20 01:54:13;;;;;;;8.50;3.42;;;18.70;99.90;;;;;;5096920;28;20419;-75
2022/08/20 01:57:03;;;;;;;6.13;3.22;;;18.70;99.90;;;;;;5096854;28;20031;-75
2022/08/20 01:59:29;;;;;;;7.75;3.22;;;18.70;99.90;;;;;;5097380;28;20024;-75
2022/08/20 02:01:58;;;;;;;7.13;3.38;;;18.70;99.90;;;;;;5096983;28;20031;-74
2022/08/20 02:04:24;;;;;;;7.28;3.45;;;18.70;99.90;;;;;;5096697;28;20077;-75
2022/08/20 02:06:54;;;;;;;8.65;3.08;;;18.70;99.90;;;;;;5096687;28;20021;-75
2022/08/20 02:09:20;;;;;;;6.90;3.05;;;18.70;99.90;;;;;;5096746;28;20481;-75
2022/08/20 02:11:46;;;;;;;7.47;2.80;;;18.60;99.90;;;;;;5096506;28;20077;-75
2022/08/20 02:14:13;;;;;;;9.07;3.17;;;18.70;99.90;;;;;;5078416;28;20062;-75
2022/08/20 02:16:41;;;;;;;8.07;3.10;;;18.60;99.90;;;;;;5096519;28;20455;-75
2022/08/20 02:19:15;;;;;;;10.60;3.10;;;18.60;99.90;;;;;;5078284;28;20016;-75
2022/08/20 02:21:46;;;;;;;9.43;3.22;;;18.60;99.90;;;;;;5096367;28;20020;-75
2022/08/20 02:24:11;;;;;;;8.95;3.47;;;18.60;99.90;;;;;;5096999;28;20095;-75
2022/08/20 02:26:38;;;;;;;11.07;3.70;;;18.60;99.90;;;;;;5096568;28;20495;-75
2022/08/20 02:29:07;;;;;;;7.75;2.60;;;18.60;99.90;;;;;;5096351;28;20107;-75
2022/08/20 02:31:34;;;;;;;7.45;3.40;;;18.60;99.90;;;;;;5096486;28;20028;-75
2022/08/20 02:34:00;;;;;;;6.03;2.88;;;18.50;99.90;;;;;;5078005;28;20161;-75
2022/08/20 02:36:26;;;;;;;6.15;3.15;;;18.50;99.90;;;;;;5096186;28;20056;-75
2022/08/20 02:38:52;;;;;;;9.07;2.97;;;18.50;99.90;;;;;;5095991;28;20028;-75
2022/08/20 02:41:20;;;;;;;8.57;3.60;;;18.50;99.90;;;;;;5096007;28;20026;-75
2022/08/20 02:43:46;;;;;;;;;;;18.50;99.90;;;;;;5096017;28;20028;-75
2022/08/20 02:46:14;;;;;;;6.50;2.20;;;18.80;99.90;;;;;;5096005;28;19927;-75
2022/08/20 02:48:40;;;;;;;8.68;3.10;;;18.40;99.90;;;;;;5095865;28;20031;-75
2022/08/20 02:51:07;;;;;;;5.72;2.15;;;18.40;99.90;;;;;;5077703;28;20020;-75
2022/08/20 02:53:35;;;;;;;3.47;1.63;;;18.40;99.90;;;;;;5078044;28;20384;-75
2022/08/20 02:56:01;;;;;;;5.43;2.08;;;18.30;99.90;;;;;;5095741;28;20030;-75
2022/08/20 02:58:27;;;;;;;7.28;1.80;;;18.30;99.90;;;;;;5077550;28;20020;-75
2022/08/20 03:00:55;;;;;;;7.88;2.45;;;18.20;99.90;;;;;;5098315;28;20487;-74
2022/08/20 03:03:22;;;;;;;5.82;1.85;;;18.20;99.90;;;;;;5099539;28;20037;-74
2022/08/20 03:05:51;;;;;;;6.43;2.78;;;18.10;99.90;;;;;;5099974;28;20492;-74
2022/08/20 03:08:17;;;;;;;4.88;1.60;;;18.10;99.90;;;;;;5100164;28;20040;-74
2022/08/20 03:10:45;;;;;;;4.03;1.48;;;18.30;99.90;;;;;;5081550;28;20077;-74
2022/08/20 03:13:12;;;;;;;2.90;1.92;;;18.00;99.90;;;;;;5099949;28;20024;-74
2022/08/20 03:15:41;;;;;;;5.35;1.65;;;18.00;99.90;;;;;;5099914;28;20079;-74
2022/08/20 03:18:06;;;;;;;6.13;1.58;;;18.00;99.90;;;;;;5080983;28;20473;-74
2022/08/20 03:20:32;;;;;;;3.38;1.65;;;17.90;99.90;;;;;;5081593;28;20079;-75
2022/08/20 03:22:58;;;;;;;6.75;2.08;;;17.90;99.90;;;;;;5100066;28;20533;-75
2022/08/20 03:25:24;;;;;;;8.73;1.50;;;17.80;99.90;;;;;;5099634;28;20073;-75
2022/08/20 03:27:50;;;;;;;2.50;1.70;;;17.80;99.90;;;;;;5099360;28;20411;-75
2022/08/20 03:30:16;;;;;;;2.72;1.33;;;17.80;99.90;;;;;;5080879;28;20078;-74
2022/08/20 03:32:42;;;;;;;4.38;1.73;;;18.10;99.90;;;;;;5080958;28;20388;-74
2022/08/20 03:35:11;;;;;;;2.97;1.48;;;17.90;99.90;;;;;;5097586;28;20024;-74
2022/08/20 03:37:38;;;;;;;5.50;2.05;;;17.60;99.90;;;;;;5076756;28;20047;-74
2022/08/20 03:40:07;;;;;;;5.47;1.60;;;17.70;99.90;;;;;;5076715;28;20024;-74
2022/08/20 03:42:33;;;;;;;8.88;2.00;;;17.60;99.90;;;;;;5095403;28;20016;-74
2022/08/20 03:44:59;;;;;;;3.53;1.70;;;17.60;99.90;;;;;;5094831;28;20016;-74
2022/08/20 03:47:26;;;;;;;2.25;1.75;;;17.60;99.90;;;;;;5094782;28;20013;-74
2022/08/20 03:49:56;;;;;;;5.63;1.25;;;17.60;99.90;;;;;;5094647;28;20111;-74
2022/08/20 03:52:22;;;;;;;8.57;2.28;;;17.50;99.90;;;;;;5094807;28;20030;-74
2022/08/20 03:54:48;;;;;;;4.05;1.40;;;17.50;99.90;;;;;;5093828;28;20384;-74
2022/08/20 03:57:15;;;;;;;5.05;1.75;;;17.50;99.90;;;;;;5094476;28;20032;-74
2022/08/20 03:59:43;;;;;;;3.88;1.55;;;17.40;99.90;;;;;;5094362;28;20020;-74
2022/08/20 04:02:10;;;;;;;4.80;1.42;;;17.40;99.90;;;;;;5076255;28;20024;-74
2022/08/20 04:04:36;;;;;;;4.63;1.60;;;17.30;99.90;;;;;;5094371;28;20081;-74
2022/08/20 04:07:14;;;;;;;7.47;1.75;;;17.30;99.90;;;;;;5094358;28;20024;-74
2022/08/20 04:09:42;;;;;;;5.20;1.90;;;17.20;99.90;;;;;;5094444;28;20169;-74
2022/08/20 04:12:11;;;;;;;5.22;1.42;;;17.30;99.90;;;;;;5094274;28;20020;-74
2022/08/20 04:14:36;;;;;;;4.63;2.22;;;17.20;99.90;;;;;;5076022;28;20016;-74
2022/08/20 04:17:08;;;;;;;3.45;1.60;;;17.20;99.90;;;;;;5094009;28;20032;-74
2022/08/20 04:19:35;;;;;;;5.28;1.75;;;17.20;99.90;;;;;;5076035;28;20036;-74
2022/08/20 04:22:00;;;;;;;8.82;2.17;;;17.10;99.90;;;;;;5094118;28;20032;-74
2022/08/20 04:24:26;;;;;;;5.13;1.42;;;17.10;99.90;;;;;;5094688;28;20027;-73
2022/08/20 04:26:53;;;;;;;4.03;1.08;;;17.00;99.90;;;;;;5094626;28;20059;-74
2022/08/20 04:29:20;;;;;;;2.95;1.38;;;17.00;99.90;;;;;;5094050;28;20477;-74
2022/08/20 04:31:46;;;;;;;5.38;1.30;;;17.00;99.90;;;;;;5075677;28;20031;-74
2022/08/20 04:34:12;;;;;;;5.65;1.85;;;16.90;99.90;;;;;;5094486;28;20468;-74
2022/08/20 04:36:38;;;;;;;4.70;1.25;;;16.90;99.90;;;;;;5093840;28;20480;-73
2022/08/20 04:39:04;;;;;;;3.65;1.33;;;16.90;99.90;;;;;;5093825;28;20423;-73
2022/08/20 04:41:29;;;;;;;1.92;0.85;;;16.80;99.90;;;;;;5075653;28;20016;-74
2022/08/20 04:43:56;;;;;;;5.03;0.90;;;16.80;99.90;;;;;;5075893;28;20069;-74
2022/08/20 04:46:26;;;;;;;3.78;1.05;;;17.10;99.90;;;;;;5093653;28;20028;-74
2022/08/20 04:48:52;;;;;;;3.63;0.98;;;16.70;99.90;;;;;;5093725;28;20020;-74
2022/08/20 04:51:19;;;;;;;6.95;1.17;;;16.70;99.90;;;;;;5075466;28;20012;-74
2022/08/20 04:53:45;;;;;;;4.03;1.33;;;16.60;99.90;;;;;;5093514;28;20024;-74
2022/08/20 04:56:11;;;;;;;1.48;0.73;;;16.50;99.90;;;;;;5075462;28;20027;-74
2022/08/20 04:58:38;;;;;;;3.33;0.70;;;16.60;99.90;;;;;;5075444;28;20016;-73
2022/08/20 05:01:07;;;;;;;1.60;0.93;;;16.50;99.90;;;;;;5075368;28;20027;-73
2022/08/20 05:03:33;;;;;;;6.35;1.08;;;16.50;99.90;;;;;;5093416;28;20028;-73
2022/08/20 05:06:00;;;;;;;5.55;0.77;;;16.40;99.90;;;;;;5093487;28;20016;-74
2022/08/20 05:08:27;;;;;;;2.17;1.00;;;16.40;99.90;;;;;;5075225;28;20089;-74
2022/08/20 05:10:53;;;;;;;5.95;0.82;;;16.30;99.90;;;;;;5093395;28;20030;-74
2022/08/20 05:13:20;;;;;;;2.58;0.73;;;16.30;99.90;;;;;;5093672;28;20024;-74
2022/08/20 05:15:47;;;;;;;1.95;1.17;;;16.30;99.90;;;;;;5093515;28;20085;-74
2022/08/20 05:18:17;;;;;;;1.20;0.63;;;16.20;99.90;;;;;;5093291;28;20113;-74
2022/08/20 05:20:43;;;;;;;2.78;0.50;;;16.20;99.90;;;;;;5093244;28;20085;-73
2022/08/20 05:23:11;;;;;;;2.58;0.50;;;16.20;99.90;;;;;;5093208;28;20543;-73
2022/08/20 05:25:37;;;;;;;2.58;0.93;;;16.20;99.90;;;;;;5093574;28;20009;-74
2022/08/20 05:28:26;;;;;;;7.43;0.93;;;16.20;99.90;;;;;;5075146;28;20024;-74
2022/08/20 05:30:52;;;;;;;6.57;0.80;;;16.20;99.90;;;;;;5074793;28;20028;-74
2022/08/20 05:33:20;;;;;;;2.78;0.95;;;16.20;99.90;;;;;;5093450;28;20094;-74
2022/08/20 05:35:48;;;;;;;2.67;0.90;;;16.20;99.90;;;;;;5093470;28;20099;-74
2022/08/20 05:38:17;;;;;;;5.93;0.53;;;16.30;99.90;;;;;;5075105;28;20020;-74
2022/08/20 05:40:43;;;;;;;3.33;0.60;;;16.40;99.90;;;;;;5075006;28;20413;-74
2022/08/20 05:43:09;;;;;;;3.17;1.20;;;16.40;99.90;;;;;;5074944;28;20016;-74
2022/08/20 05:45:37;;;;;;;4.95;0.60;;;16.50;99.90;;;;;;5093076;28;20024;-74
2022/08/20 05:48:10;;;;;;;3.40;0.88;;;16.60;99.90;;;;;;5092982;28;20058;-74
2022/08/20 05:50:37;;;;;;;4.25;1.00;;;16.70;99.90;;;;;;5093104;28;20032;-74
2022/08/20 05:53:03;;;;;;;4.97;0.60;;;16.80;99.90;;;;;;5092896;28;20488;-74
2022/08/20 05:55:28;;;;;;;3.38;0.68;;;16.80;99.90;;;;;;5092908;28;20089;-74
2022/08/20 05:57:58;;;;;;;2.47;0.55;;;16.90;99.90;;;;;;5093005;28;20039;-74
2022/08/20 06:00:24;;;;;;;4.93;0.70;;;16.90;99.90;;;;;;5092804;28;20501;-74
2022/08/20 06:05:35;;;;;;;8.52;0.73;;;17.10;99.90;;;;;;5093502;28;20078;-74
2022/08/20 06:08:04;;;;;;;;;;;17.20;99.90;;;;;;5079248;28;20552;-74
2022/08/20 06:10:30;;;;;;;4.82;0.40;;;17.20;99.90;;;;;;5096583;28;19998;-74
2022/08/20 06:12:55;;;;;;;8.07;1.15;;;17.40;99.90;;;;;;5097226;28;20120;-74
2022/08/20 06:15:21;;;;;;;3.58;0.88;;;17.40;99.90;;;;;;5078984;28;20465;-74
2022/08/20 06:17:46;;;;;;;3.33;0.65;;;18.00;99.90;;;;;;5098900;28;20084;-74
2022/08/20 06:20:12;;;;;;;3.85;0.60;;;17.60;99.90;;;;;;5082422;28;20107;-74
2022/08/20 06:22:38;;;;;;;6.47;0.65;;;17.70;99.90;;;;;;5100869;28;20024;-74
2022/08/20 06:25:05;;;;;;;4.45;0.57;;;18.40;99.90;;;;;;5082585;28;20031;-74
2022/08/20 06:27:32;;;;;;;3.40;0.30;;;17.90;99.90;;;;;;5100566;28;20024;-74
2022/08/20 06:29:57;;;;;;;3.38;0.32;;;17.90;99.90;;;;;;5082675;28;20472;-74
2022/08/20 06:32:25;;;;;;;2.38;0.20;;;18.00;99.90;;;;;;5081938;28;20077;-74
2022/08/20 06:34:50;;;;;;;6.18;0.65;;;18.10;99.90;;;;;;5081684;28;20020;-74
2022/08/20 06:37:20;;;;;;;3.05;0.65;;;18.20;99.90;;;;;;5099253;28;20031;-77
2022/08/20 06:39:46;;;;;;;6.75;1.17;;;19.50;99.90;;;;;;5099622;28;20024;-75
2022/08/20 06:42:12;;;;;;;2.53;0.52;;;18.50;99.90;;;;;;5098868;28;20354;-76
2022/08/20 06:44:38;;;;;;;4.18;0.38;;;18.50;99.90;;;;;;5080677;28;20023;-75
2022/08/20 06:47:04;;;;;;;4.43;0.40;;;18.60;99.90;;;;;;5080835;28;20020;-75
2022/08/20 06:49:33;;;;;;;2.83;0.25;;;18.70;99.90;;;;;;5099018;28;20051;-75
2022/08/20 06:51:59;;;;;;;6.88;0.38;;;20.00;99.90;;;;;;5099219;28;20366;-75
2022/08/20 06:54:24;;;;;;;2.67;0.52;;;18.90;99.90;;;;;;5081200;28;20039;-75
2022/08/20 06:56:52;;;;;;;5.88;0.22;;;18.90;99.90;;;;;;5081428;28;20020;-76
2022/08/20 06:59:19;;;;;;;5.80;0.25;;;21.00;99.90;;;;;;5081657;28;20012;-75
2022/08/20 07:01:45;;;;;;;3.42;0.30;;;19.10;99.90;;;;;;5095623;28;20157;-76
2022/08/20 07:04:10;;;;;;;5.93;0.30;;;19.10;99.90;;;;;;5095646;28;20536;-76
2022/08/20 07:06:36;;;;;;;2.47;0.00;;;19.20;99.90;;;;;;5077562;28;20109;-76
2022/08/20 07:09:02;;;;;;;4.68;0.20;;;19.30;99.90;;;;;;5095489;28;20539;-76
2022/08/20 07:11:27;;;;;;;4.25;0.10;;;19.40;99.90;;;;;;5095758;28;20079;-74
2022/08/20 07:13:53;;;;;;;5.13;0.47;;;19.60;99.90;;;;;;5095634;28;20473;-74
2022/08/20 07:16:18;;;;;;;3.50;0.50;;;19.60;99.90;;;;;;5102300;22;20093;-74
2022/08/20 07:18:44;;;;;;;3.30;0.15;;;19.80;99.90;;;;;;5095312;28;20024;-74
2022/08/20 07:21:11;;;;;;;6.15;0.22;;;19.80;99.90;;;;;;5077175;28;20487;-74
2022/08/20 07:23:36;;;;;;;2.60;0.00;;;19.90;99.90;;;;;;5095238;28;20115;-74
2022/08/20 07:26:02;;;;;;;4.85;0.30;;;20.00;99.90;;;;;;5077133;28;20051;-74
2022/08/20 07:28:30;;;;;;;4.35;0.28;;;20.00;99.90;;;;;;5094281;28;20099;-74
2022/08/20 07:33:40;;;;;;;2.72;0.10;;;20.10;99.90;;;;;;5095825;28;20039;-74
2022/08/20 07:36:07;;;;;;;2.60;0.30;;;20.20;99.90;;;;;;5095193;28;20028;-74
2022/08/20 07:38:33;;;;;;;4.57;0.10;;;20.30;99.90;;;;;;5094902;28;20047;-74
2022/08/20 07:41:08;;;;;;;6.85;0.90;;;20.30;99.90;;;;;;5094907;28;20054;-74
2022/08/20 07:43:34;;;;;;;4.85;0.30;;;20.50;99.90;;;;;;5094816;28;20012;-74
2022/08/20 07:46:06;;;;;;;3.67;0.08;;;20.70;99.90;;;;;;5076637;28;20362;-74
2022/08/20 07:48:32;;;;;;;7.20;0.25;;;20.70;99.90;;;;;;5076701;28;20084;-74
2022/08/20 07:50:59;;;;;;;3.78;0.43;;;20.70;99.90;;;;;;5094615;28;20392;-74
2022/08/20 07:53:26;;;;;;;4.07;0.32;;;20.70;99.90;;;;;;5094562;28;20020;-74
2022/08/20 07:55:52;;;;;;;5.30;0.00;;;20.80;99.90;;;;;;5094596;28;20485;-75
2022/08/20 07:58:21;;;;;;;0.95;0.08;;;20.80;99.90;;;;;;5076474;28;20485;-74
2022/08/20 08:00:46;;;;;;;6.00;0.10;;;20.80;99.90;;;;;;5076171;28;20031;-74
2022/08/20 08:03:12;;;;;;;3.28;0.10;;;20.90;99.90;;;;;;5094472;28;20020;-74
2022/08/20 08:05:42;;;;;;;4.70;0.30;;;21.00;99.90;;;;;;5094375;28;20095;-74
2022/08/20 08:08:12;;;;;;;2.85;0.35;;;21.20;99.90;;;;;;5076198;28;20022;-74
2022/08/20 08:10:39;;;;;;;4.75;0.15;;;21.20;99.90;;;;;;5076745;28;20111;-73
2022/08/20 08:13:09;;;;;;;3.70;0.00;;;21.30;99.90;;;;;;5094203;28;20016;-73
2022/08/20 08:15:39;;;;;;;3.50;0.20;;;21.30;99.90;;;;;;5075892;28;20036;-74
2022/08/20 08:18:09;;;;;;;5.40;0.47;;;21.40;99.90;;;;;;5094371;28;20469;-74
2022/08/20 08:20:39;;;;;;;2.08;0.00;;;21.50;99.90;;;;;;5094535;28;20051;-74
2022/08/20 08:23:06;;;;;;;6.70;0.52;;;21.50;99.90;;;;;;5094105;28;20099;-74
2022/08/20 08:25:32;;;;;;;3.95;0.80;;;21.60;99.90;;;;;;5094426;28;20028;-74
2022/08/20 08:27:59;;;;;;;2.35;0.20;;;21.60;99.90;;;;;;5094464;28;20066;-75
2022/08/20 08:30:27;;;;;;;4.43;0.00;;;21.70;99.90;;;;;;5094099;28;20048;-74
2022/08/20 08:35:38;;;;;;;3.85;0.40;;;21.90;99.90;;;;;;5094630;28;20380;-74
2022/08/20 08:38:04;;;;;;;2.83;0.43;;;22.10;99.90;;;;;;5094638;28;20099;-74
2022/08/20 08:40:31;;;;;;;2.25;0.05;;;22.10;99.90;;;;;;5075467;28;20119;-74
2022/08/20 08:42:59;;;;;;;3.95;0.80;;;22.20;99.90;;;;;;5093850;28;20044;-74
2022/08/20 08:45:35;;;;;;;6.72;0.28;;;22.00;99.90;;;;;;5093908;28;20385;-74
2022/08/20 08:48:01;;;;;;;6.40;0.10;;;21.90;99.80;;;;;;5075722;28;20121;-75
2022/08/20 08:50:33;;;;;;;1.17;0.08;;;22.10;99.90;;;;;;5094041;28;20036;-74
2022/08/20 08:53:01;;;;;;;1.27;0.00;;;22.20;99.80;;;;;;5075599;28;20024;-74
2022/08/20 08:55:28;;;;;;;2.38;0.00;;;22.20;98.60;;;;;;5093681;28;20048;-74
2022/08/20 08:57:57;;;;;;;4.95;0.13;;;22.40;99.50;;;;;;5093676;28;20035;-74
2022/08/20 09:00:23;;;;;;;0.98;0.03;;;22.40;96.00;;;;;;5075740;28;20020;-74
2022/08/20 09:03:05;;;;;;;2.55;0.00;;;22.60;97.30;;;;;;5093566;28;20477;-74
2022/08/20 09:05:52;;;;;;;1.27;0.00;;;22.70;97.20;;;;;;5093923;28;20020;-74
2022/08/20 09:08:34;;;;;;;1.85;0.17;;;22.80;95.70;;;;;;5075591;28;20027;-74
2022/08/20 09:11:05;;;;;;;1.48;0.00;;;22.70;94.80;;;;;;5093493;28;20060;-74
2022/08/20 09:13:31;;;;;;;4.10;0.65;;;22.70;94.30;;;;;;5093486;28;20055;-74
2022/08/20 09:15:57;;;;;;;1.67;0.00;;;22.80;95.80;;;;;;5093415;28;20035;-74
2022/08/20 09:18:23;;;;;;;1.42;0.00;;;22.90;94.30;;;;;;5093811;28;20020;-75
2022/08/20 09:20:48;;;;;;;2.92;0.20;;;23.00;95.30;;;;;;5075297;28;20562;-74
2022/08/20 09:23:14;;;;;;;1.77;0.00;;;23.00;93.70;;;;;;5093443;28;20027;-74
2022/08/20 09:25:39;;;;;;;2.80;0.15;;;23.00;92.50;;;;;;5075454;28;20051;-74
2022/08/20 09:28:05;;;;;;;5.57;0.10;;;23.10;94.10;;;;;;5093333;28;20016;-74
2022/08/20 09:30:30;;;;;;;2.90;0.47;;;23.10;93.30;;;;;;5093349;28;20028;-74
2022/08/20 09:32:58;;;;;;;2.50;0.00;;;23.30;93.00;;;;;;5075216;28;20016;-74
2022/08/20 09:35:24;;;;;;;1.47;0.07;;;23.40;94.00;;;;;;5093374;28;20058;-74
2022/08/20 09:37:51;;;;;;;2.72;0.17;;;23.30;91.10;;;;;;5075131;28;20024;-74
2022/08/20 09:40:18;;;;;;;2.75;0.17;;;23.40;93.70;;;;;;5075231;28;20142;-74
2022/08/20 09:42:44;;;;;;;2.42;0.10;;;23.50;93.00;;;;;;5093284;28;20034;-74
2022/08/20 09:45:11;;;;;;;4.10;0.40;;;23.60;93.10;;;;;;5093216;28;20426;-74
2022/08/20 09:47:37;;;;;;;2.60;0.15;;;23.60;91.90;;;;;;5075096;28;20358;-74
2022/08/20 09:50:04;;;;;;;5.25;0.68;;;23.60;91.50;;;;;;5075108;28;20024;-74
2022/08/20 09:52:32;;;;;;;4.40;0.40;;;23.60;91.20;;;;;;5094866;28;20032;-74
2022/08/20 09:55:01;;;;;;;4.05;0.28;;;23.80;92.10;;;;;;5079280;28;20032;-75
2022/08/20 09:57:28;;;;;;;5.15;0.10;;;23.80;90.10;;;;;;5078912;28;20046;-74
2022/08/20 09:59:59;;;;;;;3.15;0.00;;;23.90;91.80;;;;;;5097596;28;20069;-74
2022/08/20 10:02:25;;;;;;;3.90;0.35;;;24.10;92.00;;;;;;5097443;28;20028;-75
2022/08/20 10:04:51;;;;;;;2.80;0.10;;;24.10;91.10;;;;;;5096973;28;20020;-76
2022/08/20 10:07:16;;;;;;;2.28;0.35;;;24.20;90.20;;;;;;5097307;28;20056;-76
2022/08/20 10:09:42;;;;;;;4.05;0.20;;;24.30;89.10;;;;;;5096701;28;20016;-76
2022/08/20 10:12:08;;;;;;;4.90;0.32;;;24.30;88.80;;;;;;5096592;28;20447;-76
2022/08/20 10:14:34;;;;;;;2.72;0.22;;;24.30;86.00;;;;;;5078544;28;20020;-76
2022/08/20 10:17:01;;;;;;;4.05;0.00;;;24.30;85.20;;;;;;5096455;28;20124;-76
2022/08/20 10:19:28;;;;;;;1.50;0.00;;;23.90;83.70;;;;;;5096972;28;20020;-75
2022/08/20 10:21:54;;;;;;;2.83;0.03;;;24.00;91.60;;;;;;5078307;28;20073;-75
2022/08/20 10:24:21;;;;;;;2.92;0.00;;;24.30;90.10;;;;;;5096638;28;20027;-75
2022/08/20 10:26:47;;;;;;;2.88;0.68;;;24.50;92.70;;;;;;5096673;28;20016;-75
2022/08/20 10:29:14;;;;;;;2.10;0.10;;;24.60;92.20;;;;;;5078253;28;20031;-75
2022/08/20 10:31:39;;;;;;;2.03;0.32;;;24.90;90.20;;;;;;5096518;28;20027;-75
2022/08/20 10:34:05;;;;;;;3.13;0.00;;;25.00;87.10;;;;;;5097999;28;20465;-73
2022/08/20 10:36:31;;;;;;;2.40;0.30;;;25.10;87.80;;;;;;5098769;28;20024;-73
2022/08/20 10:38:56;;;;;;;1.70;0.10;;;25.20;83.20;;;;;;5098839;28;20016;-73
2022/08/20 10:41:22;;;;;;;6.53;0.08;;;25.10;81.00;;;;;;5098591;28;20109;-73
2022/08/20 10:43:48;;;;;;;3.10;0.50;;;25.30;88.60;;;;;;5098800;28;20530;-73
2022/08/20 10:46:13;;;;;;;2.00;0.20;;;25.50;84.90;;;;;;5098308;28;20040;-73
2022/08/20 10:48:39;;;;;;;4.50;0.00;;;25.50;81.30;;;;;;5080503;28;20012;-73
2022/08/20 10:51:05;;;;;;;6.68;0.55;;;25.60;83.80;;;;;;5098991;28;20079;-73
2022/08/20 10:53:31;;;;;;;1.02;0.00;;;25.40;80.00;;;;;;5080487;28;20124;-73
2022/08/20 10:55:57;;;;;;;4.60;0.30;;;25.50;80.80;;;;;;5098674;28;20043;-73
2022/08/20 10:58:23;;;;;;;1.27;0.00;;;25.80;80.50;;;;;;5098509;28;20028;-73
2022/08/20 11:00:49;;;;;;;3.17;0.10;;;26.00;79.00;;;;;;5099193;28;20020;-73
2022/08/20 11:03:15;;;;;;;2.17;0.50;;;26.30;82.40;;;;;;5080028;28;20115;-73
2022/08/20 11:05:40;;;;;;;2.63;0.32;;;26.50;79.70;;;;;;5080640;28;20023;-75
2022/08/20 11:08:06;;;;;;;5.45;0.52;;;26.30;79.10;;;;;;5098281;28;20021;-72
2022/08/20 11:10:34;;;;;;;5.43;0.10;;;25.80;77.70;;;;;;5078855;28;20080;-72
2022/08/20 11:13:02;;;;;;;1.33;0.00;;;25.90;81.50;;;;;;5097343;28;20095;-73
2022/08/20 11:15:28;;;;;;;4.07;0.00;;;25.80;81.60;;;;;;5097089;28;20031;-73
2022/08/20 11:17:55;;;;;;;3.10;0.25;;;25.70;78.30;;;;;;5097159;28;20022;-73
2022/08/20 11:20:24;;;;;;;6.05;0.20;;;25.50;82.80;;;;;;5097439;28;20099;-73
2022/08/20 11:22:51;;;;;;;4.60;0.10;;;25.20;85.50;;;;;;5096669;28;20016;-73
2022/08/20 11:25:17;;;;;;;3.75;0.00;;;25.10;85.00;;;;;;5099599;28;20043;-73
2022/08/20 11:27:46;;;;;;;4.30;0.00;;;25.10;88.60;;;;;;5083175;28;20020;-73
2022/08/20 11:30:13;;;;;;;;;;;25.50;86.40;;;;;;5099381;28;20028;-73
2022/08/20 11:32:39;;;;;;;6.05;0.10;;;25.80;86.30;;;;;;5095318;28;19904;-73
2022/08/20 11:35:05;;;;;;;2.70;0.00;;;26.00;85.20;;;;;;5076982;28;20492;-73
2022/08/20 11:37:31;;;;;;;5.03;0.73;;;26.00;83.20;;;;;;5095054;28;20562;-73
2022/08/20 11:40:00;;;;;;;2.58;0.20;;;25.80;78.10;;;;;;5095191;28;20069;-73
2022/08/20 11:42:25;;;;;;;2.13;0.00;;;25.90;79.60;;;;;;5076917;28;20491;-72
2022/08/20 11:44:51;;;;;;;1.83;0.32;;;26.20;76.90;;;;;;5076809;28;20057;-72
2022/08/20 11:47:28;;;;;;;3.20;0.10;;;26.50;73.30;;;;;;5076763;28;20024;-72
2022/08/20 11:50:04;;;;;;;4.20;0.60;;;26.30;74.10;;;;;;5076824;28;20484;-72
2022/08/20 11:52:30;;;;;;;2.90;0.25;;;26.40;77.20;;;;;;5095261;28;20081;-73
2022/08/20 11:54:57;;;;;;;7.38;0.43;;;26.70;80.50;;;;;;5094654;28;20477;-72
2022/08/20 11:57:28;;;;;;;2.90;0.10;;;27.20;77.70;;;;;;5076697;28;20473;-72
2022/08/20 11:59:56;;;;;;;2.40;0.57;;;27.20;72.80;;;;;;5094701;28;20473;-72
2022/08/20 12:02:21;;;;;;;3.95;0.22;;;27.30;73.10;;;;;;5094623;28;20085;-72
2022/08/20 12:04:48;;;;;;;3.22;0.28;;;27.00;74.50;;;;;;5076560;28;20453;-72
2022/08/20 12:07:16;;;;;;;4.97;0.90;;;26.70;73.70;;;;;;5094493;28;20368;-72
2022/08/20 12:09:42;;;;;;;1.65;0.00;;;26.30;71.50;;;;;;5076190;28;20032;-72
2022/08/20 12:12:08;;;;;;;2.92;0.00;;;26.10;73.30;;;;;;5095074;28;20111;-72
2022/08/20 12:14:34;;;;;;;3.75;0.05;;;26.00;76.10;;;;;;5093803;28;20107;-72
2022/08/20 12:17:22;;;;;;;1.65;0.20;;;25.80;75.70;;;;;;5075970;28;20051;-72
2022/08/20 12:19:49;;;;;;;4.15;0.00;;;25.50;73.40;;;;;;5094295;28;20020;-72
2022/08/20 12:22:14;;;;;;;2.10;0.03;;;25.40;79.30;;;;;;5094075;28;20048;-72
2022/08/20 12:24:40;;;;;;;2.45;0.20;;;25.30;79.60;;;;;;5094094;28;20051;-72
2022/08/20 12:27:17;;;;;;;4.38;0.90;;;25.10;78.00;;;;;;5094172;28;20024;-72
2022/08/20 12:29:45;;;;;;;3.93;0.23;;;25.10;79.80;;;;;;5075880;28;20045;-73
2022/08/20 12:32:11;;;;;;;2.63;0.32;;;25.10;80.20;;;;;;5094489;28;20052;-72
2022/08/20 12:34:47;;;;;;;5.05;0.10;;;25.10;78.60;;;;;;5094025;28;20032;-72
2022/08/20 12:37:15;;;;;;;6.57;0.75;;;25.10;77.80;;;;;;5093946;28;20027;-72
2022/08/20 12:39:43;;;;;;;1.73;0.10;;;25.30;79.10;;;;;;5093802;28;20024;-72
2022/08/20 12:42:09;;;;;;;;;;;25.80;80.20;;;;;;5094395;28;20031;-72
2022/08/20 12:44:36;;;;;;;3.03;0.10;;;25.80;77.80;;;;;;5093687;28;19904;-72
2022/08/20 12:47:23;;;;;;;7.20;0.20;;;26.00;76.70;;;;;;5093708;28;20024;-73
2022/08/20 12:49:52;;;;;;;3.08;0.10;;;25.80;76.90;;;;;;5093947;28;20489;-73
2022/08/20 12:52:19;;;;;;;2.97;0.73;;;25.60;76.20;;;;;;5093997;28;20028;-73
2022/08/20 12:54:45;;;;;;;6.00;0.08;;;25.50;77.70;;;;;;5093671;28;20031;-72
2022/08/20 12:57:31;;;;;;;4.80;0.32;;;25.40;74.30;;;;;;5075513;28;20107;-73
2022/08/20 12:59:59;;;;;;;5.07;0.35;;;25.40;78.50;;;;;;5094043;28;20023;-73